Time;durP1;ratioP1;P1;durP2;ratioP2;P2;SDS_P1;SDS_P2;PMS_P1;PMS_P2;Temp;Humidity;BMP_temperature;BMP_pressure;BME280_temperature;BME280_humidity;BME280_pressure;Samples;Min_cycle;Max_cycle;Signal;HPM_P1;HPM_P2
2023/04/23 00:00:40;;;;;;;43.30;31.50;;;12.60;76.70;;;;;;5034443;28;20047;-69
2023/04/23 00:03:08;;;;;;;45.22;30.88;;;12.60;76.70;;;;;;5039749;28;20065;-69
2023/04/23 00:05:36;;;;;;;46.13;32.40;;;12.60;76.80;;;;;;5031057;28;20079;-69
2023/04/23 00:08:03;;;;;;;46.35;31.88;;;12.60;76.80;;;;;;5042982;28;20059;-69
2023/04/23 00:10:28;;;;;;;47.25;31.33;;;12.60;76.80;;;;;;5038644;28;20083;-69
2023/04/23 00:12:54;;;;;;;49.53;33.65;;;12.60;76.80;;;;;;5034591;28;20025;-69
2023/04/23 00:15:21;;;;;;;50.85;34.95;;;12.60;76.80;;;;;;5035141;28;20190;-69
2023/04/23 00:17:47;;;;;;;48.10;34.10;;;12.50;76.80;;;;;;5044739;28;20115;-69
2023/04/23 00:20:15;;;;;;;50.85;35.30;;;12.50;76.80;;;;;;5040073;28;20390;-69
2023/04/23 00:22:44;;;;;;;50.25;34.10;;;12.50;76.80;;;;;;5028066;28;20350;-69
2023/04/23 00:25:10;;;;;;;52.70;35.28;;;12.50;76.80;;;;;;5038604;28;20025;-69
2023/04/23 00:27:36;;;;;;;51.35;35.65;;;12.50;76.80;;;;;;5029305;28;20082;-69
2023/04/23 00:30:03;;;;;;;51.38;35.05;;;12.50;76.80;;;;;;5049274;28;20100;-69
2023/04/23 00:32:29;;;;;;;52.15;34.28;;;12.50;76.90;;;;;;5044508;28;20415;-69
2023/04/23 00:34:55;;;;;;;53.38;37.50;;;12.50;76.90;;;;;;5037593;28;20028;-69
2023/04/23 00:37:21;;;;;;;53.38;35.60;;;12.50;76.90;;;;;;5049537;28;20034;-70
2023/04/23 00:39:47;;;;;;;56.33;37.63;;;12.40;76.90;;;;;;5040388;28;20088;-69
2023/04/23 00:42:16;;;;;;;51.42;35.72;;;12.40;76.90;;;;;;5047048;28;20097;-69
2023/04/23 00:44:42;;;;;;;53.72;37.53;;;12.40;76.90;;;;;;5037754;28;20040;-69
2023/04/23 00:47:08;;;;;;;52.83;35.40;;;12.40;76.90;;;;;;5040268;28;20108;-69
2023/04/23 00:49:35;;;;;;;51.45;33.85;;;12.40;76.90;;;;;;5039381;28;20025;-69
2023/04/23 00:52:02;;;;;;;50.50;34.78;;;12.40;76.90;;;;;;5040075;28;20120;-69
2023/04/23 00:54:27;;;;;;;49.40;34.80;;;12.40;76.90;;;;;;5036417;28;20040;-69
2023/04/23 00:56:55;;;;;;;50.95;34.92;;;12.30;76.90;;;;;;5043818;28;20029;-69
2023/04/23 00:59:20;;;;;;;51.38;33.97;;;12.30;76.90;;;;;;5040210;28;20446;-69
2023/04/23 01:01:47;;;;;;;50.28;33.60;;;12.30;76.90;;;;;;5046044;28;20035;-70
2023/04/23 01:04:15;;;;;;;52.67;34.17;;;12.30;76.80;;;;;;5040173;28;20419;-69
2023/04/23 01:06:41;;;;;;;50.47;34.10;;;12.30;76.90;;;;;;5041552;28;20052;-69
2023/04/23 01:09:11;;;;;;;48.70;32.33;;;12.20;76.80;;;;;;5043915;28;20524;-69
2023/04/23 01:11:42;;;;;;;50.05;33.08;;;12.20;76.80;;;;;;5037957;28;20076;-69
2023/04/23 01:14:09;;;;;;;52.08;33.38;;;12.20;76.80;;;;;;5038718;28;20031;-69
2023/04/23 01:16:37;;;;;;;47.17;31.55;;;12.10;76.80;;;;;;5040358;28;20060;-69
2023/04/23 01:19:08;;;;;;;47.63;31.70;;;12.10;76.80;;;;;;5048845;28;20017;-69
2023/04/23 01:21:35;;;;;;;52.67;34.05;;;12.10;76.70;;;;;;5038048;28;20041;-69
2023/04/23 01:24:03;;;;;;;49.38;32.72;;;12.10;76.70;;;;;;5040881;28;20108;-69
2023/04/23 01:26:29;;;;;;;52.13;32.35;;;12.00;76.70;;;;;;5046640;28;20026;-69
2023/04/23 01:28:55;;;;;;;49.88;32.42;;;12.00;76.70;;;;;;5025925;28;20091;-69
2023/04/23 01:31:21;;;;;;;51.42;33.55;;;12.00;76.70;;;;;;5033219;28;20096;-69
2023/04/23 01:33:50;;;;;;;54.33;34.53;;;12.00;76.80;;;;;;5017039;28;20171;-69
2023/04/23 01:36:16;;;;;;;50.72;33.92;;;12.00;76.80;;;;;;5030011;28;20039;-69
2023/04/23 01:38:42;;;;;;;53.85;33.92;;;12.00;76.90;;;;;;5045471;28;20026;-69
2023/04/23 01:41:07;;;;;;;54.50;33.63;;;12.00;76.90;;;;;;5044577;28;20419;-69
2023/04/23 01:43:34;;;;;;;53.40;34.10;;;12.00;77.00;;;;;;5048776;28;20476;-69
2023/04/23 01:46:00;;;;;;;50.92;34.97;;;12.00;77.00;;;;;;5034769;28;20028;-69
2023/04/23 01:48:27;;;;;;;51.75;34.40;;;12.10;77.10;;;;;;5031109;28;20111;-69
2023/04/23 01:50:53;;;;;;;50.65;32.92;;;12.10;77.10;;;;;;5032988;28;20355;-69
2023/04/23 01:53:19;;;;;;;52.20;34.60;;;12.10;77.10;;;;;;5033666;28;20092;-69
2023/04/23 01:55:50;;;;;;;52.53;33.75;;;12.10;77.10;;;;;;5023023;28;20025;-69
2023/04/23 01:58:16;;;;;;;54.90;35.85;;;12.10;77.10;;;;;;5024231;28;20045;-69
2023/04/23 02:00:42;;;;;;;56.40;35.55;;;12.10;77.10;;;;;;5036170;28;20025;-69
2023/04/23 02:03:08;;;;;;;51.70;34.45;;;12.10;77.10;;;;;;5049051;28;20043;-70
2023/04/23 02:05:35;;;;;;;53.30;36.42;;;12.10;77.10;;;;;;5036097;28;20026;-69
2023/04/23 02:08:01;;;;;;;50.25;34.40;;;12.10;77.10;;;;;;5040265;28;20041;-69
2023/04/23 02:10:29;;;;;;;50.03;32.72;;;12.10;77.10;;;;;;5024010;28;20032;-69
2023/04/23 02:12:56;;;;;;;50.70;34.40;;;12.10;77.20;;;;;;5040339;28;20056;-69
2023/04/23 02:15:22;;;;;;;54.08;33.80;;;12.00;77.10;;;;;;5033647;28;20030;-69
2023/04/23 02:17:50;;;;;;;51.60;34.30;;;12.00;77.80;;;;;;5050429;28;20040;-69
2023/04/23 02:20:15;;;;;;;48.55;33.10;;;12.00;77.20;;;;;;5036451;28;20143;-69
2023/04/23 02:22:41;;;;;;;51.70;34.42;;;12.00;77.20;;;;;;5037366;28;20454;-69
2023/04/23 02:25:08;;;;;;;53.75;34.80;;;12.00;77.30;;;;;;5035928;28;20055;-68
2023/04/23 02:27:35;;;;;;;49.67;33.60;;;12.00;77.30;;;;;;5030914;28;20029;-68
2023/04/23 02:30:02;;;;;;;51.05;32.95;;;12.00;77.30;;;;;;5045147;28;20116;-68
2023/04/23 02:32:27;;;;;;;51.22;33.15;;;12.00;77.30;;;;;;5050677;28;20021;-68
2023/04/23 02:34:54;;;;;;;51.42;32.75;;;12.00;77.40;;;;;;5048157;28;20032;-68
2023/04/23 02:37:20;;;;;;;52.65;33.10;;;12.00;77.30;;;;;;5042233;28;20446;-68
2023/04/23 02:39:45;;;;;;;47.33;31.83;;;12.10;77.40;;;;;;5028625;28;20390;-68
2023/04/23 02:42:12;;;;;;;46.97;30.75;;;12.10;77.50;;;;;;5042580;28;20040;-68
2023/04/23 02:44:38;;;;;;;48.03;30.58;;;12.10;77.40;;;;;;5048322;28;20334;-68
2023/04/23 02:47:03;;;;;;;46.17;30.60;;;12.10;77.50;;;;;;5032414;28;20128;-68
2023/04/23 02:49:29;;;;;;;47.78;30.02;;;12.10;77.30;;;;;;5042003;28;20053;-68
2023/04/23 02:51:55;;;;;;;46.25;28.98;;;12.10;77.30;;;;;;5041634;28;20055;-68
2023/04/23 02:54:21;;;;;;;46.50;30.08;;;12.10;77.30;;;;;;5053044;28;20030;-68
2023/04/23 02:56:47;;;;;;;45.45;29.58;;;12.10;77.30;;;;;;5034708;28;20121;-68
2023/04/23 02:59:12;;;;;;;43.35;28.48;;;12.10;77.30;;;;;;5046963;28;20119;-68
2023/04/23 03:01:38;;;;;;;40.30;28.45;;;12.10;77.30;;;;;;5040574;28;20104;-68
2023/04/23 03:04:06;;;;;;;42.25;28.58;;;12.10;77.30;;;;;;5050124;28;20079;-69
2023/04/23 03:06:34;;;;;;;41.38;29.60;;;12.10;77.30;;;;;;5033596;28;20406;-68
2023/04/23 03:09:00;;;;;;;42.00;28.38;;;12.20;77.40;;;;;;5035001;28;20032;-68
2023/04/23 03:11:26;;;;;;;42.30;29.25;;;12.10;77.30;;;;;;5029604;28;20029;-68
2023/04/23 03:13:52;;;;;;;43.28;27.50;;;12.10;77.30;;;;;;5049975;28;20021;-68
2023/04/23 03:16:18;;;;;;;37.53;25.90;;;12.10;77.90;;;;;;5037324;28;20037;-68
2023/04/23 03:18:45;;;;;;;39.60;26.42;;;12.10;77.30;;;;;;5028578;28;20021;-68
2023/04/23 03:21:10;;;;;;;39.60;25.65;;;12.10;77.30;;;;;;5029814;28;20060;-68
2023/04/23 03:23:37;;;;;;;40.40;26.92;;;12.10;77.30;;;;;;5044832;28;20037;-68
2023/04/23 03:26:03;;;;;;;42.83;26.50;;;12.10;77.30;;;;;;5030976;28;20086;-68
2023/04/23 03:28:30;;;;;;;38.58;26.10;;;12.10;77.30;;;;;;5035870;28;20533;-68
2023/04/23 03:30:56;;;;;;;38.67;25.77;;;12.10;77.30;;;;;;5015409;28;20089;-68
2023/04/23 03:33:22;;;;;;;37.80;25.30;;;12.00;77.30;;;;;;5031214;28;20029;-68
2023/04/23 03:35:49;;;;;;;38.65;25.90;;;12.00;77.30;;;;;;5016231;28;20021;-68
2023/04/23 03:38:19;;;;;;;36.80;24.67;;;12.00;77.30;;;;;;5030764;28;20026;-68
2023/04/23 03:40:45;;;;;;;33.90;24.40;;;12.00;77.30;;;;;;5030300;28;20112;-68
2023/04/23 03:43:11;;;;;;;39.42;26.83;;;12.00;77.40;;;;;;5013320;28;20578;-68
2023/04/23 03:45:57;;;;;;;37.80;26.05;;;12.00;77.50;;;;;;5038327;28;20359;-68
2023/04/23 03:48:23;;;;;;;37.65;25.63;;;12.00;77.50;;;;;;5016217;28;20087;-68
2023/04/23 03:50:49;;;;;;;40.15;27.33;;;12.00;77.50;;;;;;5040212;28;20035;-68
2023/04/23 03:53:31;;;;;;;39.47;25.42;;;12.00;77.50;;;;;;5004316;28;20423;-68
2023/04/23 03:56:17;;;;;;;36.60;25.38;;;12.00;77.50;;;;;;5021193;28;20033;-68
2023/04/23 03:58:52;;;;;;;37.50;23.85;;;12.00;77.50;;;;;;5022460;28;20021;-68
2023/04/23 04:01:18;;;;;;;39.00;25.95;;;11.90;77.50;;;;;;5030731;28;20037;-68
2023/04/23 04:03:44;;;;;;;38.35;25.90;;;12.00;77.60;;;;;;5016241;28;20108;-68
2023/04/23 04:06:10;;;;;;;36.53;26.17;;;11.90;78.20;;;;;;5003253;28;20022;-68
2023/04/23 04:08:35;;;;;;;38.35;25.80;;;11.90;77.60;;;;;;5001980;28;20095;-68
2023/04/23 04:11:01;;;;;;;38.55;25.60;;;11.90;77.60;;;;;;5014992;28;20489;-68
2023/04/23 04:13:27;;;;;;;36.70;24.85;;;12.00;77.70;;;;;;5016361;28;20105;-68
2023/04/23 04:15:52;;;;;;;40.42;25.63;;;12.00;77.70;;;;;;5013903;28;20440;-68
2023/04/23 04:18:19;;;;;;;39.13;25.30;;;12.00;77.60;;;;;;5003353;28;20029;-68
2023/04/23 04:20:44;;;;;;;38.85;25.02;;;12.00;77.70;;;;;;5017353;28;20041;-68
2023/04/23 04:23:10;;;;;;;36.83;24.50;;;12.00;77.70;;;;;;5017358;28;20048;-68
2023/04/23 04:25:38;;;;;;;36.65;25.05;;;12.00;77.70;;;;;;5014542;28;20034;-68
2023/04/23 04:28:06;;;;;;;36.33;25.80;;;12.00;77.70;;;;;;5021057;28;20418;-68
2023/04/23 04:30:33;;;;;;;42.42;27.10;;;12.00;77.80;;;;;;5020804;28;20022;-68
2023/04/23 04:33:00;;;;;;;36.28;25.15;;;11.90;77.80;;;;;;5019788;28;20494;-68
2023/04/23 04:35:26;;;;;;;36.15;25.13;;;12.00;77.90;;;;;;5019243;28;20032;-68
2023/04/23 04:37:53;;;;;;;37.28;25.13;;;12.00;77.90;;;;;;5043374;28;20554;-68
2023/04/23 04:40:19;;;;;;;37.88;25.27;;;12.00;77.80;;;;;;5026710;28;20374;-68
2023/04/23 04:42:45;;;;;;;34.67;24.25;;;12.00;77.80;;;;;;5032206;28;20041;-68
2023/04/23 04:45:12;;;;;;;35.60;24.67;;;12.00;77.80;;;;;;5032287;28;20033;-68
2023/04/23 04:47:38;;;;;;;35.15;23.20;;;12.00;77.90;;;;;;5042371;28;20480;-68
2023/04/23 04:50:04;;;;;;;36.38;24.65;;;12.00;77.80;;;;;;5014903;28;20064;-68
2023/04/23 04:52:30;;;;;;;38.30;25.45;;;12.00;77.80;;;;;;5040396;28;20529;-67
2023/04/23 04:54:56;;;;;;;36.13;24.10;;;12.00;77.80;;;;;;5041195;28;20473;-67
2023/04/23 04:57:22;;;;;;;35.65;24.63;;;12.00;77.80;;;;;;5034527;28;20116;-67
2023/04/23 04:59:48;;;;;;;36.05;24.50;;;12.10;77.90;;;;;;5031102;28;20101;-68
2023/04/23 05:02:15;;;;;;;39.50;25.30;;;12.00;77.90;;;;;;5031159;28;20049;-68
2023/04/23 05:04:41;;;;;;;33.65;23.80;;;12.10;77.90;;;;;;5032636;28;20033;-69
2023/04/23 05:07:06;;;;;;;36.33;23.92;;;12.10;77.90;;;;;;5014309;28;20113;-69
2023/04/23 05:09:32;;;;;;;33.13;23.10;;;12.10;77.90;;;;;;5004817;28;20010;-69
2023/04/23 05:11:58;;;;;;;33.88;22.58;;;12.10;77.90;;;;;;5048180;28;20051;-70
2023/04/23 05:14:25;;;;;;;32.63;23.52;;;12.10;77.90;;;;;;5019133;28;20352;-69
2023/04/23 05:16:51;;;;;;;34.45;24.30;;;12.20;78.00;;;;;;5028630;28;20048;-70
2023/04/23 05:19:16;;;;;;;32.72;23.38;;;12.20;78.00;;;;;;5035635;28;20518;-70
2023/04/23 05:21:42;;;;;;;34.85;21.58;;;12.10;77.90;;;;;;5033267;28;21007;-70
2023/04/23 05:24:08;;;;;;;35.50;22.70;;;12.20;78.10;;;;;;5012399;28;20408;-70
2023/04/23 05:26:34;;;;;;;33.75;22.85;;;12.20;78.10;;;;;;5033299;28;20052;-69
2023/04/23 05:29:00;;;;;;;32.00;21.73;;;12.20;78.10;;;;;;5012910;28;20473;-70
2023/04/23 05:31:26;;;;;;;31.35;20.65;;;12.20;78.10;;;;;;5033803;28;20026;-70
2023/04/23 05:33:53;;;;;;;35.78;23.65;;;12.20;78.10;;;;;;5032610;28;20018;-70
2023/04/23 05:36:19;;;;;;;31.25;21.70;;;12.20;78.10;;;;;;5035743;28;20029;-70
2023/04/23 05:38:46;;;;;;;34.63;23.25;;;12.20;78.10;;;;;;5014498;28;20048;-70
2023/04/23 05:41:11;;;;;;;31.52;21.15;;;12.20;78.20;;;;;;5035081;28;20025;-70
2023/04/23 05:43:37;;;;;;;31.05;21.60;;;12.30;78.20;;;;;;5017280;28;20059;-70
2023/04/23 05:46:06;;;;;;;31.02;21.60;;;12.30;78.20;;;;;;5046895;28;20052;-70
2023/04/23 05:48:32;;;;;;;31.67;21.45;;;12.30;78.20;;;;;;5047161;28;20406;-70
2023/04/23 05:50:58;;;;;;;30.95;22.00;;;12.30;78.10;;;;;;5036195;28;20026;-70
2023/04/23 05:53:24;;;;;;;28.80;20.58;;;12.30;78.10;;;;;;5026418;28;20033;-70
2023/04/23 05:55:50;;;;;;;30.45;21.65;;;12.40;78.30;;;;;;5038890;28;20040;-70
2023/04/23 05:58:18;;;;;;;29.20;19.63;;;12.50;78.30;;;;;;5037286;28;20379;-69
2023/04/23 06:00:44;;;;;;;31.02;21.73;;;12.50;78.10;;;;;;5035510;28;20037;-70
2023/04/23 06:03:10;;;;;;;28.73;19.65;;;12.60;78.00;;;;;;5036617;28;20044;-71
2023/04/23 06:05:36;;;;;;;28.55;20.42;;;12.90;77.80;;;;;;5033772;28;20041;-70
2023/04/23 06:08:03;;;;;;;27.48;18.77;;;13.70;76.40;;;;;;5029636;28;20048;-71
2023/04/23 06:10:28;;;;;;;25.45;17.48;;;14.30;75.00;;;;;;5038694;28;20048;-70
2023/04/23 06:12:54;;;;;;;25.23;17.10;;;15.00;73.40;;;;;;5041587;28;20025;-70
2023/04/23 06:15:21;;;;;;;26.13;18.15;;;15.50;72.30;;;;;;5034054;28;20519;-70
2023/04/23 06:17:47;;;;;;;22.30;16.98;;;15.90;71.70;;;;;;5032234;28;20172;-70
2023/04/23 06:20:13;;;;;;;21.70;16.05;;;16.00;71.40;;;;;;5035507;28;20080;-71
2023/04/23 06:22:39;;;;;;;19.20;15.00;;;16.00;71.50;;;;;;5041141;28;20116;-72
2023/04/23 06:25:05;;;;;;;21.77;15.73;;;16.00;71.60;;;;;;5031270;28;20029;-71
2023/04/23 06:27:32;;;;;;;22.27;15.88;;;16.00;71.60;;;;;;5029263;28;20030;-71
2023/04/23 06:30:02;;;;;;;19.58;14.18;;;16.00;71.50;;;;;;5045817;28;20112;-71
2023/04/23 06:32:28;;;;;;;21.58;15.93;;;16.10;71.30;;;;;;5015245;28;20096;-72
2023/04/23 06:34:54;;;;;;;20.40;15.27;;;16.10;71.10;;;;;;5011969;28;21025;-71
2023/04/23 06:37:20;;;;;;;20.63;14.68;;;16.20;70.80;;;;;;5029996;28;20034;-71
2023/04/23 06:39:45;;;;;;;17.52;13.80;;;16.20;70.70;;;;;;5027863;28;20041;-70
2023/04/23 06:42:11;;;;;;;17.92;13.75;;;16.40;70.60;;;;;;5033631;28;20035;-71
2023/04/23 06:44:58;;;;;;;17.00;13.52;;;16.40;70.20;;;;;;5034606;28;20056;-71
2023/04/23 06:47:24;;;;;;;17.45;13.00;;;16.60;69.90;;;;;;5040564;28;20033;-71
2023/04/23 06:49:51;;;;;;;20.23;13.43;;;16.70;69.60;;;;;;5037787;28;20112;-70
2023/04/23 06:52:16;;;;;;;17.10;11.68;;;16.80;69.20;;;;;;5054881;28;20124;-71
2023/04/23 06:54:42;;;;;;;16.00;11.65;;;16.90;69.00;;;;;;5050168;28;20079;-71
2023/04/23 06:57:08;;;;;;;16.08;11.88;;;17.00;68.80;;;;;;5053346;28;20128;-71
2023/04/23 06:59:34;;;;;;;13.43;10.57;;;17.10;68.40;;;;;;5055399;28;20071;-71
2023/04/23 07:02:01;;;;;;;15.30;11.23;;;17.20;68.10;;;;;;5054075;28;20033;-71
2023/04/23 07:04:27;;;;;;;13.32;10.48;;;17.30;67.90;;;;;;5055345;28;20487;-71
2023/04/23 07:06:53;;;;;;;14.40;11.07;;;17.50;67.60;;;;;;5038399;28;20105;-71
2023/04/23 07:09:18;;;;;;;14.27;10.30;;;17.60;67.30;;;;;;5042452;28;20029;-72
2023/04/23 07:11:44;;;;;;;14.05;10.70;;;17.80;67.00;;;;;;5053859;28;20028;-72
2023/04/23 07:14:10;;;;;;;13.07;10.25;;;17.90;66.70;;;;;;5053829;28;20025;-72
2023/04/23 07:16:36;;;;;;;13.43;9.73;;;17.90;66.40;;;;;;5040992;28;20036;-72
2023/04/23 07:19:01;;;;;;;14.32;10.80;;;18.00;66.00;;;;;;5052342;28;20036;-72
2023/04/23 07:21:28;;;;;;;13.40;10.02;;;18.10;65.70;;;;;;5029155;28;20048;-72
2023/04/23 07:24:05;;;;;;;14.38;10.57;;;18.20;65.40;;;;;;5053300;28;20021;-73
2023/04/23 07:26:32;;;;;;;13.70;10.13;;;18.30;65.10;;;;;;5032062;28;20032;-73
2023/04/23 07:28:58;;;;;;;12.65;10.07;;;18.30;64.90;;;;;;5039464;28;20115;-73
2023/04/23 07:31:23;;;;;;;13.07;9.98;;;18.40;64.60;;;;;;5053875;28;20107;-72
2023/04/23 07:33:49;;;;;;;15.02;9.57;;;18.60;64.50;;;;;;5053486;28;20036;-72
2023/04/23 07:36:15;;;;;;;13.65;10.07;;;18.70;64.20;;;;;;5050797;28;20339;-73
2023/04/23 07:38:41;;;;;;;12.27;9.75;;;18.80;63.80;;;;;;5054862;28;20087;-73
2023/04/23 07:41:07;;;;;;;13.93;9.95;;;18.90;63.80;;;;;;5034219;28;20079;-72
2023/04/23 07:43:33;;;;;;;14.88;9.75;;;19.00;63.50;;;;;;5054333;28;20416;-72
2023/04/23 07:45:59;;;;;;;13.10;9.48;;;19.10;63.10;;;;;;5040804;28;20058;-73
2023/04/23 07:48:24;;;;;;;11.68;8.50;;;19.20;62.80;;;;;;5035522;28;20120;-71
2023/04/23 07:50:50;;;;;;;14.95;9.43;;;19.30;62.60;;;;;;5055005;28;20019;-72
2023/04/23 07:53:16;;;;;;;11.50;8.35;;;19.40;62.40;;;;;;5053520;28;20037;-72
2023/04/23 07:55:42;;;;;;;11.43;8.90;;;19.50;62.10;;;;;;5053766;28;20055;-72
2023/04/23 07:58:07;;;;;;;11.32;8.30;;;19.60;61.70;;;;;;5046154;28;20115;-73
2023/04/23 08:00:34;;;;;;;11.90;8.60;;;19.70;61.30;;;;;;5039389;28;20047;-72
2023/04/23 08:03:00;;;;;;;12.70;7.70;;;19.70;61.10;;;;;;5036980;28;20043;-73
2023/04/23 08:05:26;;;;;;;10.25;7.25;;;19.90;60.90;;;;;;5052798;28;20111;-72
2023/04/23 08:07:51;;;;;;;10.57;7.13;;;19.90;60.80;;;;;;5046318;28;20021;-73
2023/04/23 08:10:17;;;;;;;12.63;7.53;;;20.00;60.50;;;;;;5045775;28;20090;-73
2023/04/23 08:12:43;;;;;;;10.02;6.75;;;20.10;60.30;;;;;;5046209;28;20128;-73
2023/04/23 08:15:09;;;;;;;9.48;6.57;;;20.20;60.00;;;;;;5045560;28;20043;-73
2023/04/23 08:17:39;;;;;;;9.45;6.60;;;20.30;59.70;;;;;;5032931;28;20025;-72
2023/04/23 08:20:06;;;;;;;9.38;6.32;;;20.30;59.60;;;;;;5027036;28;20383;-73
2023/04/23 08:22:32;;;;;;;10.57;6.38;;;20.40;59.40;;;;;;5052646;28;20045;-72
2023/04/23 08:24:57;;;;;;;10.52;5.72;;;20.50;59.10;;;;;;5044394;28;20022;-73
2023/04/23 08:27:23;;;;;;;9.82;5.47;;;20.60;58.90;;;;;;5033288;28;20060;-73
2023/04/23 08:29:49;;;;;;;9.73;6.10;;;20.70;59.20;;;;;;5041147;28;20035;-73
2023/04/23 08:32:14;;;;;;;11.50;6.57;;;20.70;58.30;;;;;;5050180;28;20056;-73
2023/04/23 08:34:40;;;;;;;9.70;5.25;;;20.80;58.10;;;;;;5045672;28;20082;-73
2023/04/23 08:37:06;;;;;;;9.77;6.18;;;20.80;57.90;;;;;;5036889;28;20119;-73
2023/04/23 08:39:33;;;;;;;8.65;5.22;;;20.90;57.80;;;;;;5047371;28;20021;-73
2023/04/23 08:42:08;;;;;;;9.30;5.60;;;21.00;57.60;;;;;;5054541;28;20032;-73
2023/04/23 08:44:35;;;;;;;8.48;5.15;;;21.10;57.40;;;;;;5017233;28;20033;-73
2023/04/23 08:47:04;;;;;;;9.55;5.28;;;21.10;57.20;;;;;;5050940;28;20033;-73
2023/04/23 08:49:32;;;;;;;8.98;4.97;;;21.10;57.60;;;;;;5047790;28;20106;-73
2023/04/23 08:52:18;;;;;;;7.55;4.80;;;21.10;57.00;;;;;;5056647;28;20031;-72
2023/04/23 08:54:51;;;;;;;7.97;4.75;;;21.10;56.90;;;;;;5045516;28;20026;-73
2023/04/23 08:57:18;;;;;;;9.85;5.13;;;21.20;56.50;;;;;;5034676;28;20041;-73
2023/04/23 08:59:46;;;;;;;7.55;4.25;;;21.20;56.60;;;;;;5036263;28;20223;-73
2023/04/23 09:02:14;;;;;;;7.55;4.35;;;21.20;56.40;;;;;;5036479;28;20079;-73
2023/04/23 09:04:40;;;;;;;8.82;4.50;;;21.20;56.20;;;;;;5028194;28;20094;-73
2023/04/23 09:07:16;;;;;;;10.18;4.53;;;21.10;56.20;;;;;;5037086;28;20029;-72
2023/04/23 09:09:42;;;;;;;7.60;4.10;;;21.10;56.30;;;;;;5023046;28;20037;-71
2023/04/23 09:12:08;;;;;;;8.05;3.83;;;21.20;56.30;;;;;;5032197;28;20028;-71
2023/04/23 09:14:35;;;;;;;7.95;3.60;;;21.20;56.00;;;;;;5036699;28;20030;-73
2023/04/23 09:17:04;;;;;;;9.13;4.78;;;21.30;55.90;;;;;;5035693;28;20372;-73
2023/04/23 09:19:30;;;;;;;8.57;3.95;;;21.40;55.80;;;;;;5035021;28;20026;-73
2023/04/23 09:21:57;;;;;;;8.18;3.30;;;21.50;55.80;;;;;;5034949;28;20091;-73
2023/04/23 09:24:24;;;;;;;8.38;3.80;;;21.60;55.40;;;;;;5042358;28;20063;-74
2023/04/23 09:26:51;;;;;;;8.32;3.78;;;21.50;55.20;;;;;;5035916;28;20057;-73
2023/04/23 09:29:22;;;;;;;9.13;3.83;;;21.40;55.30;;;;;;5034900;28;20025;-73
2023/04/23 09:31:54;;;;;;;7.68;3.10;;;21.30;55.00;;;;;;5016269;28;20073;-73
2023/04/23 09:34:22;;;;;;;9.52;3.53;;;21.20;54.80;;;;;;5018343;28;20986;-73
2023/04/23 09:36:50;;;;;;;7.07;3.20;;;21.10;54.80;;;;;;5028100;28;20022;-73
2023/04/23 09:39:21;;;;;;;7.82;2.88;;;21.10;54.70;;;;;;5035345;28;20034;-73
2023/04/23 09:41:49;;;;;;;7.47;3.03;;;21.10;54.60;;;;;;5033245;28;20063;-73
2023/04/23 09:44:23;;;;;;;7.38;3.35;;;21.20;54.70;;;;;;5035869;28;20037;-73
2023/04/23 09:46:49;;;;;;;8.45;2.72;;;21.30;54.60;;;;;;5037472;28;20104;-73
2023/04/23 09:49:15;;;;;;;7.82;2.80;;;21.40;54.40;;;;;;5054843;28;20032;-73
2023/04/23 09:51:48;;;;;;;8.32;2.63;;;21.40;53.80;;;;;;5040098;28;20053;-73
2023/04/23 09:54:17;;;;;;;7.95;2.47;;;21.50;53.30;;;;;;5033939;28;20072;-73
2023/04/23 09:56:48;;;;;;;6.55;2.28;;;21.50;53.00;;;;;;5016275;28;20029;-72
2023/04/23 09:59:27;;;;;;;7.00;2.40;;;21.50;52.80;;;;;;5031280;28;20112;-73
2023/04/23 10:01:53;;;;;;;6.32;2.28;;;21.60;52.90;;;;;;5033207;28;20103;-73
2023/04/23 10:04:21;;;;;;;9.75;2.53;;;21.60;52.40;;;;;;5034442;28;20052;-73
2023/04/23 10:06:57;;;;;;;9.27;2.17;;;21.50;52.10;;;;;;5032973;28;20538;-70
2023/04/23 10:09:25;;;;;;;10.40;2.10;;;21.60;51.90;;;;;;5033898;28;20100;-71
2023/04/23 10:11:52;;;;;;;9.63;2.15;;;21.60;52.00;;;;;;5036161;28;20021;-71
2023/04/23 10:14:22;;;;;;;7.10;1.90;;;21.60;52.20;;;;;;5035177;28;20033;-70
2023/04/23 10:16:50;;;;;;;6.40;1.92;;;21.80;52.10;;;;;;5049282;28;20108;-71
2023/04/23 10:19:21;;;;;;;4.65;1.77;;;21.90;51.70;;;;;;5046886;28;20535;-70
2023/04/23 10:22:03;;;;;;;6.55;1.95;;;22.10;51.20;;;;;;5046195;28;20044;-72
2023/04/23 10:24:32;;;;;;;7.30;2.28;;;22.20;50.60;;;;;;5037405;28;20032;-70
2023/04/23 10:27:03;;;;;;;6.45;1.90;;;22.30;50.60;;;;;;5040610;28;20048;-70
2023/04/23 10:29:30;;;;;;;;;;;22.40;50.50;;;;;;5033271;28;20022;-71
2023/04/23 10:31:58;;;;;;;4.75;1.60;;;22.30;50.80;;;;;;5030249;28;20250;-71
2023/04/23 10:34:25;;;;;;;5.75;1.83;;;22.10;50.80;;;;;;5033380;28;20029;-71
2023/04/23 10:36:52;;;;;;;6.05;1.70;;;22.00;50.50;;;;;;5033275;28;20052;-71
2023/04/23 10:39:20;;;;;;;6.53;2.10;;;21.90;50.20;;;;;;5029581;28;20090;-70
2023/04/23 10:41:47;;;;;;;8.02;2.25;;;21.80;50.20;;;;;;5030105;28;20119;-70
2023/04/23 10:44:16;;;;;;;8.48;1.98;;;21.70;50.20;;;;;;5025946;28;20033;-70
2023/04/23 10:46:56;;;;;;;5.55;2.00;;;21.60;50.20;;;;;;5036378;28;20354;-70
2023/04/23 10:49:24;;;;;;;4.75;1.48;;;21.30;49.90;;;;;;5023533;28;20041;-72
2023/04/23 10:51:59;;;;;;;5.40;1.65;;;21.10;50.30;;;;;;5033667;28;20020;-71
2023/04/23 10:54:29;;;;;;;7.32;1.75;;;20.90;50.20;;;;;;5032753;28;20425;-69
2023/04/23 10:57:01;;;;;;;4.18;1.77;;;20.80;50.50;;;;;;5032409;28;20025;-71
2023/04/23 10:59:29;;;;;;;5.38;1.70;;;20.70;50.60;;;;;;5033669;28;20405;-71
2023/04/23 11:02:00;;;;;;;7.00;2.00;;;20.60;50.70;;;;;;5031889;28;20032;-70
2023/04/23 11:04:28;;;;;;;6.60;1.95;;;20.40;50.80;;;;;;5035889;28;20153;-72
2023/04/23 11:06:56;;;;;;;4.40;1.40;;;20.30;51.00;;;;;;5029452;28;20045;-71
2023/04/23 11:09:49;;;;;;;6.78;1.90;;;20.30;51.10;;;;;;5035787;28;20094;-71
2023/04/23 11:12:23;;;;;;;5.57;1.42;;;20.40;51.10;;;;;;5034609;28;20086;-76
2023/04/23 11:14:51;;;;;;;4.80;1.38;;;20.50;50.60;;;;;;5045761;28;20319;-73
2023/04/23 11:17:37;;;;;;;6.35;1.63;;;20.60;50.50;;;;;;5033781;28;20378;-73
2023/04/23 11:20:12;;;;;;;7.78;1.70;;;20.80;50.20;;;;;;5033699;28;20029;-72
2023/04/23 11:22:51;;;;;;;4.97;1.30;;;20.90;49.70;;;;;;5035936;28;20041;-73
2023/04/23 11:25:29;;;;;;;5.35;1.38;;;20.90;49.30;;;;;;5029387;28;20037;-73
2023/04/23 11:27:59;;;;;;;5.13;1.65;;;20.90;49.40;;;;;;5037282;28;20128;-73
2023/04/23 11:30:27;;;;;;;5.68;1.75;;;20.90;49.50;;;;;;5046487;28;20025;-73
2023/04/23 11:32:54;;;;;;;6.13;1.65;;;20.80;49.60;;;;;;5032624;28;20029;-73
2023/04/23 11:35:23;;;;;;;4.63;1.80;;;20.70;49.50;;;;;;5053649;28;20035;-73
2023/04/23 11:37:49;;;;;;;4.57;1.38;;;20.50;49.40;;;;;;5027031;28;20113;-73
2023/04/23 11:40:18;;;;;;;5.15;1.30;;;20.30;49.50;;;;;;5019320;28;20061;-73
2023/04/23 11:42:48;;;;;;;7.32;1.67;;;20.10;49.70;;;;;;5043389;28;20096;-73
2023/04/23 11:45:19;;;;;;;5.25;1.52;;;20.10;49.80;;;;;;5050810;28;20040;-73
2023/04/23 11:47:47;;;;;;;4.50;1.83;;;20.10;50.10;;;;;;5042524;28;20447;-73
2023/04/23 11:50:18;;;;;;;5.47;1.77;;;20.20;50.30;;;;;;5047526;28;20346;-73
2023/04/23 11:52:44;;;;;;;6.47;1.70;;;20.30;50.10;;;;;;5040140;28;20039;-72
2023/04/23 11:55:11;;;;;;;5.90;1.65;;;20.30;50.20;;;;;;5029182;28;20017;-73
2023/04/23 11:57:42;;;;;;;4.03;1.48;;;20.40;50.40;;;;;;5054446;28;20473;-72
2023/04/23 12:00:22;;;;;;;5.45;1.90;;;20.50;50.30;;;;;;5039321;28;20353;-73
2023/04/23 12:03:02;;;;;;;5.35;1.60;;;20.50;50.10;;;;;;5043063;28;20064;-73
2023/04/23 12:05:31;;;;;;;4.50;1.50;;;20.40;50.10;;;;;;5023747;28;20446;-72
2023/04/23 12:08:11;;;;;;;6.45;1.60;;;20.40;50.00;;;;;;5054254;28;20087;-73
2023/04/23 12:10:50;;;;;;;5.22;1.50;;;20.40;50.00;;;;;;5039490;28;20033;-73
2023/04/23 12:13:25;;;;;;;5.30;1.17;;;20.40;50.20;;;;;;5051427;28;20036;-73
2023/04/23 12:15:55;;;;;;;5.43;1.45;;;20.30;50.30;;;;;;5050616;28;20029;-73
2023/04/23 12:18:32;;;;;;;;;;;20.30;50.30;;;;;;5042634;28;20120;-72
2023/04/23 12:21:05;;;;;;;4.35;1.40;;;20.30;50.50;;;;;;5047720;28;19924;-73
2023/04/23 12:23:32;;;;;;;3.80;1.38;;;20.20;50.50;;;;;;5045410;28;20036;-73
2023/04/23 12:25:59;;;;;;;4.80;1.48;;;20.10;50.60;;;;;;5047314;28;20052;-73
2023/04/23 12:28:26;;;;;;;3.58;1.30;;;20.10;50.90;;;;;;5034145;28;20052;-73
2023/04/23 12:30:52;;;;;;;7.40;1.63;;;20.00;51.00;;;;;;5048940;28;20059;-72
2023/04/23 12:33:19;;;;;;;4.05;1.15;;;20.00;51.20;;;;;;5052801;28;20068;-73
2023/04/23 12:35:50;;;;;;;5.00;1.70;;;20.00;51.30;;;;;;5037953;28;20029;-73
2023/04/23 12:38:27;;;;;;;4.70;1.48;;;20.00;51.50;;;;;;5053051;28;20079;-73